Terminal Aerodrome Forecast
Issued by NWS

Home | Current Version | Previous Version | Text Only | Print | Product List | Glossary On
Versions: 1 2 3 4 5 6 7 8 9 10 11 12 13 14 15 16 17 18 19 20 21
000
FTUS46 KLOX 272340
TAFPRB
TAF
KPRB 272340Z 2800/2824 21012KT P6SM SKC
     FM280300 23008KT P6SM SKC
     FM280700 VRB03KT P6SM SKC
     FM282000 30006KT P6SM SKC
     FM282300 22010KT P6SM SKC=

USA.gov is the U.S. government's official web portal to all federal, state and local government web resources and services.